Newberry, MI

12:47 AM EDT on April 23, 2018 (GMT -0400)
Luce County

Weather History for KERY - May, 2013

Change the Weather History Date:

Thursday, May 23, 2013

  Actual Average Record
Temperature  
Mean Temperature 42 °F -  
Max Temperature 48 °F 67 °F 90 °F (1975)
Min Temperature 35 °F 43 °F 20 °F (1925)
Degree Days  
Heating Degree Days 24    
Moisture  
Dew Point 35 °F    
Average Humidity 78    
Maximum Humidity 100    
Minimum Humidity 57    
Precipitation  
Precipitation 0.00 in - - ()
Sea Level Pressure  
Sea Level Pressure 30.09 in    
Wind  
Wind Speed 12 mph (NNW)    
Max Wind Speed 20 mph    
Max Gust Speed 33 mph    
Visibility 10 miles    
Events Rain    
Averages and records for this station are not official NWS values.
T = Trace of Precipitation, MM = Missing Value Source: NWS Daily Summary

Daily Weather History Graph

Daily Weather History Graph

Search for Another Location

Airport or City:

Astronomy

May. 23, 2013 Rise Set
Actual Time 6:00 AM EDT 9:17 PM EDT
Civil Twilight 5:23 AM EDT 9:54 PM EDT
Nautical Twilight 4:35 AM EDT 10:42 PM EDT
Astronomical Twilight 3:35 AM EDT 11:43 PM EDT
Moon 7:45 PM EDT 4:50 AM EDT
Length of Visible Light 16h 31m
Length of Day
15h 17m
Waxing Gibbous, 97% of the Moon is Illuminated
May 23
Waxing Gibbous
May 25
Full
May 31
Last Quarter
Jun 8
New
Jun 16
First Quarter

Hourly Weather History & Observations

Time (EDT) Temp. Windchill Dew Point Humidity Pressure Visibility Wind Dir Wind Speed Gust Speed Precip Events Conditions
12:14 AM 48.2 °F - 46.4 °F 93% 29.86 in 5.0 mi North 12.7 mph 19.6 mph N/A Rain Light Rain
12:34 AM 46.4 °F 41.1 °F 44.6 °F 93% 29.87 in 4.0 mi North 11.5 mph 17.3 mph N/A   Overcast
12:55 AM 46.4 °F 42.4 °F 44.6 °F 93% 29.87 in 7.0 mi North 8.1 mph 18.4 mph N/A   Overcast
1:14 AM 44.6 °F 39.2 °F 44.6 °F 100% 29.88 in 10.0 mi North 10.4 mph - N/A Rain Light Rain
1:35 AM 44.6 °F 39.7 °F 42.8 °F 93% 29.89 in 10.0 mi North 9.2 mph 16.1 mph N/A Rain Light Rain
1:55 AM 44.6 °F 39.7 °F 42.8 °F 93% 29.89 in 7.0 mi North 9.2 mph - N/A   Overcast
2:14 AM 44.6 °F 40.2 °F 42.8 °F 93% 29.89 in 10.0 mi North 8.1 mph 16.1 mph N/A Rain Light Rain
2:35 AM 42.8 °F 37.0 °F 42.8 °F 100% 29.90 in 10.0 mi North 10.4 mph - N/A Rain Light Rain
2:54 AM 42.8 °F 37.0 °F 41.0 °F 93% 29.90 in 7.0 mi North 10.4 mph 17.3 mph N/A   Overcast
3:14 AM 42.8 °F 37.5 °F 41.0 °F 93% 29.90 in 10.0 mi North 9.2 mph 16.1 mph N/A Rain Light Rain
3:35 AM 42.8 °F 37.0 °F 39.2 °F 87% 29.91 in 5.0 mi North 10.4 mph 16.1 mph N/A   Overcast
3:54 AM 41.0 °F 35.8 °F 39.2 °F 93% 29.91 in 10.0 mi North 8.1 mph - N/A Rain Light Rain
4:14 AM 41.0 °F 34.7 °F 39.2 °F 93% 29.92 in 7.0 mi North 10.4 mph 16.1 mph N/A Rain Light Rain
4:34 AM 39.2 °F 32.5 °F 39.2 °F 100% 29.92 in 10.0 mi North 10.4 mph 17.3 mph N/A Rain Light Rain
4:54 AM 39.2 °F 32.0 °F 37.4 °F 93% 29.92 in 10.0 mi North 11.5 mph 17.3 mph N/A   Overcast
5:15 AM 39.2 °F 33.0 °F 37.4 °F 93% 29.93 in 10.0 mi North 9.2 mph - N/A   Overcast
5:34 AM 39.2 °F 33.0 °F 37.4 °F 93% 29.94 in 10.0 mi North 9.2 mph - N/A   Mostly Cloudy
5:54 AM 39.2 °F 33.0 °F 37.4 °F 93% 29.95 in 10.0 mi North 9.2 mph 17.3 mph N/A   Overcast
6:15 AM 39.2 °F 32.5 °F 37.4 °F 93% 29.96 in 10.0 mi North 10.4 mph 18.4 mph N/A   Overcast
6:34 AM 39.2 °F 33.0 °F 37.4 °F 93% 29.97 in 10.0 mi North 9.2 mph 16.1 mph N/A   Overcast
6:55 AM 37.4 °F 30.8 °F 35.6 °F 93% 29.99 in 10.0 mi North 9.2 mph 19.6 mph N/A   Overcast
7:15 AM 37.4 °F 29.8 °F 35.6 °F 93% 29.99 in 10.0 mi North 11.5 mph 17.3 mph N/A   Overcast
7:34 AM 37.4 °F 28.9 °F 35.6 °F 93% 30.00 in 10.0 mi North 13.8 mph 18.4 mph N/A   Scattered Clouds
7:55 AM 37.4 °F 28.9 °F 35.6 °F 93% 30.02 in 10.0 mi North 13.8 mph 19.6 mph N/A   Scattered Clouds
8:14 AM 37.4 °F 28.9 °F 35.6 °F 93% 30.03 in 10.0 mi North 13.8 mph 23.0 mph N/A   Clear
8:34 AM 37.4 °F 29.3 °F 33.8 °F 87% 30.04 in 10.0 mi North 12.7 mph 19.6 mph N/A   Clear
8:55 AM 37.4 °F 28.9 °F 33.8 °F 87% 30.05 in 10.0 mi North 13.8 mph 21.9 mph N/A   Clear
9:14 AM 37.4 °F 28.2 °F 33.8 °F 87% 30.06 in 10.0 mi North 16.1 mph 23.0 mph N/A   Scattered Clouds
9:34 AM 37.4 °F 28.5 °F 32.0 °F 81% 30.07 in 10.0 mi NNW 15.0 mph 24.2 mph N/A   Clear
9:55 AM 39.2 °F 31.2 °F 32.0 °F 75% 30.08 in 10.0 mi NNW 13.8 mph 26.5 mph N/A   Clear
10:14 AM 39.2 °F 31.2 °F 30.2 °F 70% 30.09 in 10.0 mi NNW 13.8 mph 23.0 mph N/A   Clear
10:35 AM 39.2 °F 30.8 °F 30.2 °F 70% 30.10 in 10.0 mi North 15.0 mph 23.0 mph N/A   Clear
10:54 AM 41.0 °F 32.5 °F 32.0 °F 70% 30.11 in 10.0 mi North 17.3 mph 25.3 mph N/A   Clear
11:14 AM 39.2 °F 30.5 °F 32.0 °F 75% 30.11 in 10.0 mi North 16.1 mph 25.3 mph N/A   Clear
11:35 AM 41.0 °F 33.5 °F 32.0 °F 70% 30.12 in 10.0 mi North 13.8 mph 27.6 mph N/A   Scattered Clouds
11:54 AM 41.0 °F 32.5 °F 32.0 °F 70% 30.13 in 10.0 mi North 17.3 mph 26.5 mph N/A   Scattered Clouds
12:15 PM 42.8 °F 35.4 °F 33.8 °F 70% 30.13 in 10.0 mi North 15.0 mph 26.5 mph N/A   Scattered Clouds
12:35 PM 42.8 °F 35.1 °F 33.8 °F 70% 30.14 in 10.0 mi NNW 16.1 mph 26.5 mph N/A   Scattered Clouds
12:54 PM 44.6 °F 37.4 °F 33.8 °F 66% 30.15 in 10.0 mi North 16.1 mph 26.5 mph N/A   Clear
1:15 PM 42.8 °F 36.2 °F 32.0 °F 66% 30.15 in 10.0 mi NNW 12.7 mph 26.5 mph N/A   Scattered Clouds
1:35 PM 42.8 °F 35.8 °F 32.0 °F 66% 30.15 in 10.0 mi NNW 13.8 mph 28.8 mph N/A   Scattered Clouds
1:54 PM 42.8 °F 34.8 °F 33.8 °F 70% 30.16 in 10.0 mi NNW 17.3 mph 26.5 mph N/A   Scattered Clouds
2:15 PM 44.6 °F 37.2 °F 32.0 °F 61% 30.17 in 10.0 mi NNW 17.3 mph 24.2 mph N/A   Scattered Clouds
2:34 PM 44.6 °F 37.8 °F 32.0 °F 61% 30.17 in 10.0 mi NNW 15.0 mph 24.2 mph N/A   Scattered Clouds
2:54 PM 44.6 °F 37.4 °F 32.0 °F 61% 30.17 in 10.0 mi NNW 16.1 mph 26.5 mph N/A   Clear
3:15 PM 44.6 °F 37.4 °F 30.2 °F 57% 30.17 in 10.0 mi NNW 16.1 mph 29.9 mph N/A   Clear
3:34 PM 44.6 °F 36.9 °F 32.0 °F 61% 30.17 in 10.0 mi North 18.4 mph 26.5 mph N/A   Clear
3:54 PM 44.6 °F 37.8 °F 30.2 °F 57% 30.17 in 10.0 mi NNW 15.0 mph 23.0 mph N/A   Clear
4:15 PM 44.6 °F 36.9 °F 30.2 °F 57% 30.17 in 10.0 mi NNW 18.4 mph 33.4 mph N/A   Clear
4:34 PM 44.6 °F 36.9 °F 30.2 °F 57% 30.17 in 10.0 mi NNW 18.4 mph 28.8 mph N/A   Clear
4:55 PM 44.6 °F 37.4 °F 32.0 °F 61% 30.18 in 10.0 mi NNW 16.1 mph 25.3 mph N/A   Clear
5:15 PM 44.6 °F 37.2 °F 32.0 °F 61% 30.18 in 10.0 mi North 17.3 mph 25.3 mph N/A   Clear
5:34 PM 44.6 °F 36.6 °F 32.0 °F 61% 30.19 in 10.0 mi North 19.6 mph 26.5 mph N/A   Clear
5:55 PM 44.6 °F 37.8 °F 32.0 °F 61% 30.19 in 10.0 mi NNW 15.0 mph 26.5 mph N/A   Clear
6:14 PM 44.6 °F 37.8 °F 30.2 °F 57% 30.20 in 10.0 mi North 15.0 mph 28.8 mph N/A   Clear
6:34 PM 44.6 °F 38.8 °F 32.0 °F 61% 30.20 in 10.0 mi NNW 11.5 mph 21.9 mph N/A   Clear
6:55 PM 44.6 °F 38.4 °F 30.2 °F 57% 30.21 in 10.0 mi North 12.7 mph 21.9 mph N/A   Clear
7:14 PM 44.6 °F 38.1 °F 30.2 °F 57% 30.21 in 10.0 mi NNW 13.8 mph 24.2 mph N/A   Clear
7:34 PM 42.8 °F 36.2 °F 30.2 °F 61% 30.22 in 10.0 mi NNW 12.7 mph 21.9 mph N/A   Clear
7:55 PM 42.8 °F 35.8 °F 32.0 °F 66% 30.23 in 10.0 mi NW 13.8 mph 19.6 mph N/A   Clear
8:14 PM 42.8 °F 37.5 °F 32.0 °F 66% 30.24 in 10.0 mi NNW 9.2 mph 21.9 mph N/A   Clear
8:35 PM 42.8 °F 38.6 °F 32.0 °F 66% 30.24 in 10.0 mi NNW 6.9 mph - N/A   Clear
8:55 PM 41.0 °F 36.4 °F 32.0 °F 70% 30.25 in 10.0 mi NW 6.9 mph - N/A   Clear
9:14 PM 39.2 °F 33.6 °F 32.0 °F 75% 30.25 in 10.0 mi NW 8.1 mph - N/A   Clear
9:35 PM 39.2 °F 34.2 °F 33.8 °F 81% 30.25 in 10.0 mi NW 6.9 mph - N/A   Clear
9:55 PM 37.4 °F 32.8 °F 33.8 °F 87% 30.26 in 10.0 mi NW 5.8 mph - N/A   Clear
10:14 PM 37.4 °F 32.1 °F 33.8 °F 87% 30.27 in 10.0 mi NW 6.9 mph - N/A   Clear
10:35 PM 37.4 °F 32.8 °F 33.8 °F 87% 30.27 in 10.0 mi NW 5.8 mph - N/A   Clear
10:54 PM 37.4 °F 31.4 °F 33.8 °F 87% 30.28 in 10.0 mi NW 8.1 mph - N/A   Clear
11:15 PM 37.4 °F 32.1 °F 33.8 °F 87% 30.28 in 10.0 mi NW 6.9 mph - N/A   Clear
11:35 PM 35.6 °F 30.7 °F 33.8 °F 93% 30.28 in 10.0 mi NNW 5.8 mph - N/A   Clear
11:54 PM 35.6 °F 31.7 °F 32.0 °F 87% 30.29 in 10.0 mi NNW 4.6 mph - N/A   Clear